Time;durP1;ratioP1;P1;durP2;ratioP2;P2;SDS_P1;SDS_P2;PMS_P1;PMS_P2;Temp;Humidity;BMP_temperature;BMP_pressure;BME280_temperature;BME280_humidity;BME280_pressure;Samples;Min_cycle;Max_cycle;Signal;HPM_P1;HPM_P2
2022/11/29 00:02:10;;;;;;;72.18;52.15;;;;;;;;;;5090427;27;20039;-73
2022/11/29 00:04:36;;;;;;;50.28;36.58;;;;;;;;;;5090757;28;20798;-76
2022/11/29 00:07:01;;;;;;;59.10;43.17;;;;;;;;;;5104395;27;20080;-75
2022/11/29 00:09:26;;;;;;;42.15;33.15;;;;;;;;;;5105830;27;20019;-73
2022/11/29 00:14:35;;;;;;;53.33;44.97;;;;;;;;;;5103464;27;20081;-73
2022/11/29 00:17:01;;;;;;;39.25;33.97;;;;;;;;;;5104148;27;20377;-76
2022/11/29 00:19:27;;;;;;;33.65;28.08;;;;;;;;;;5107543;27;20039;-75
2022/11/29 00:21:52;;;;;;;48.85;39.70;;;;;;;;;;5105200;27;20876;-73
2022/11/29 00:24:17;;;;;;;43.83;36.33;;;;;;;;;;5093392;27;20677;-73
2022/11/29 00:26:43;;;;;;;48.75;40.63;;;;;;;;;;5105630;27;20122;-72
2022/11/29 00:29:09;;;;;;;54.25;45.67;;;;;;;;;;5105160;27;20031;-73
2022/11/29 00:31:35;;;;;;;45.00;37.03;;;;;;;;;;5105388;27;20028;-76
2022/11/29 00:34:01;;;;;;;44.38;37.20;;;;;;;;;;5106437;27;20053;-75
2022/11/29 00:36:27;;;;;;;46.92;38.78;;;;;;;;;;5105657;27;20139;-74
2022/11/29 00:38:55;;;;;;;43.22;36.25;;;;;;;;;;5098068;27;20118;-74
2022/11/29 00:41:21;;;;;;;44.33;36.25;;;;;;;;;;5103180;27;20441;-76
2022/11/29 00:43:46;;;;;;;53.10;46.38;;;;;;;;;;5105408;27;20032;-74
2022/11/29 00:46:11;;;;;;;40.20;32.65;;;;;;;;;;5104232;27;20032;-72
2022/11/29 00:48:37;;;;;;;44.58;34.83;;;;;;;;;;5102257;28;20460;-73
2022/11/29 00:51:03;;;;;;;47.92;41.90;;;;;;;;;;5104014;27;20566;-73
2022/11/29 00:53:28;;;;;;;52.05;43.72;;;;;;;;;;5099138;27;20450;-73
2022/11/29 00:55:54;;;;;;;48.03;40.42;;;;;;;;;;5093499;27;20063;-74
2022/11/29 00:58:20;;;;;;;46.58;38.55;;;;;;;;;;5096093;28;20338;-73
2022/11/29 01:00:46;;;;;;;63.80;50.13;;;;;;;;;;5103420;27;20047;-74
2022/11/29 01:03:11;;;;;;;47.03;40.28;;;;;;;;;;5103334;27;20264;-73
2022/11/29 01:05:37;;;;;;;47.70;37.97;;;;;;;;;;5102585;27;21291;-75
2022/11/29 01:08:02;;;;;;;48.10;39.70;;;;;;;;;;5098563;27;20116;-72
2022/11/29 01:10:27;;;;;;;46.10;37.78;;;;;;;;;;5094700;28;20016;-74
2022/11/29 01:12:54;;;;;;;66.05;47.95;;;;;;;;;;5102767;27;20032;-73
2022/11/29 01:15:19;;;;;;;57.13;44.25;;;;;;;;;;5101887;27;20016;-73
2022/11/29 01:17:45;;;;;;;62.13;49.60;;;;;;;;;;5095238;27;20027;-75
2022/11/29 01:20:11;;;;;;;55.28;45.15;;;;;;;;;;5095934;27;20053;-74
2022/11/29 01:22:37;;;;;;;48.88;41.65;;;;;;;;;;5085459;28;20090;-73
2022/11/29 01:25:03;;;;;;;65.72;53.33;;;;;;;;;;5092092;27;21105;-74
2022/11/29 01:27:28;;;;;;;57.88;49.67;;;;;;;;;;5101828;28;20088;-73
2022/11/29 01:29:54;;;;;;;47.92;40.10;;;;;;;;;;5102152;27;20015;-76
2022/11/29 01:32:19;;;;;;;71.35;63.67;;;;;;;;;;5104128;27;20035;-72
2022/11/29 01:34:44;;;;;;;49.05;38.67;;;;;;;;;;5102808;27;20142;-73
2022/11/29 01:37:10;;;;;;;54.28;44.30;;;;;;;;;;5086296;27;20030;-75
2022/11/29 01:39:35;;;;;;;50.03;39.28;;;;;;;;;;5091324;28;20367;-73
2022/11/29 01:42:01;;;;;;;50.45;40.15;;;;;;;;;;5102291;27;20106;-73
2022/11/29 01:44:27;;;;;;;49.78;41.63;;;;;;;;;;5103183;27;20031;-73
2022/11/29 01:46:53;;;;;;;40.15;33.45;;;;;;;;;;5101219;27;20019;-73
2022/11/29 01:49:21;;;;;;;47.95;38.00;;;;;;;;;;5101630;27;20026;-74
2022/11/29 01:51:57;;;;;;;43.78;35.53;;;;;;;;;;5102261;27;20029;-73
2022/11/29 01:54:22;;;;;;;47.05;36.92;;;;;;;;;;5092880;27;20473;-76
2022/11/29 01:56:49;;;;;;;47.78;37.88;;;;;;;;;;5096920;27;20019;-75
2022/11/29 01:59:16;;;;;;;87.35;66.05;;;;;;;;;;5096774;27;20032;-73
2022/11/29 02:01:41;;;;;;;92.25;69.30;;;;;;;;;;5096427;27;20027;-74
2022/11/29 02:04:07;;;;;;;103.72;81.35;;;;;;;;;;5095413;27;20340;-76
2022/11/29 02:06:33;;;;;;;110.75;87.97;;;;;;;;;;5102105;27;20077;-73
2022/11/29 02:08:59;;;;;;;132.98;102.50;;;;;;;;;;5096641;27;20038;-74
2022/11/29 02:11:40;;;;;;;117.40;90.03;;;;;;;;;;5093993;27;20039;-74
2022/11/29 02:14:14;;;;;;;89.72;66.60;;;;;;;;;;5101447;27;20027;-72
2022/11/29 02:16:57;;;;;;;79.75;59.22;;;;;;;;;;5099678;28;20028;-75
2022/11/29 02:19:41;;;;;;;128.60;91.28;;;;;;;;;;5102006;27;20107;-73
2022/11/29 02:22:09;;;;;;;129.55;94.30;;;;;;;;;;5100754;27;20040;-72
2022/11/29 02:24:45;;;;;;;127.05;92.75;;;;;;;;;;5095865;27;20034;-73
2022/11/29 02:27:20;;;;;;;109.68;83.70;;;;;;;;;;5097458;28;20024;-72
2022/11/29 02:30:01;;;;;;;90.72;69.78;;;;;;;;;;5102713;27;20381;-73
2022/11/29 02:32:45;;;;;;;97.40;73.82;;;;;;;;;;5102132;27;20019;-72
2022/11/29 02:35:19;;;;;;;77.93;61.80;;;;;;;;;;5099921;28;20133;-72
2022/11/29 02:37:49;;;;;;;78.72;62.78;;;;;;;;;;5102072;27;20035;-73
2022/11/29 02:40:33;;;;;;;84.80;66.85;;;;;;;;;;5091856;28;20020;-72
2022/11/29 02:43:16;;;;;;;68.85;53.17;;;;;;;;;;5103967;28;20110;-73
2022/11/29 02:45:44;;;;;;;63.28;50.40;;;;;;;;;;5103489;28;20031;-74
2022/11/29 02:48:28;;;;;;;64.10;48.95;;;;;;;;;;5100570;28;20020;-75
2022/11/29 02:51:12;;;;;;;94.95;71.35;;;;;;;;;;5099760;28;20514;-72
2022/11/29 02:53:41;;;;;;;110.40;80.93;;;;;;;;;;5102348;28;20038;-72
2022/11/29 02:56:09;;;;;;;83.60;62.05;;;;;;;;;;5088156;28;20532;-72
2022/11/29 02:58:38;;;;;;;69.72;53.25;;;;;;;;;;5071728;28;20340;-75
2022/11/29 03:01:09;;;;;;;43.45;36.08;;;;;;;;;;5089070;28;20032;-71
2022/11/29 03:03:37;;;;;;;43.88;34.00;;;;;;;;;;5100345;28;20026;-74
2022/11/29 03:06:03;;;;;;;44.97;33.80;;;;;;;;;;5102667;28;20055;-75
2022/11/29 03:08:36;;;;;;;41.78;33.70;;;;;;;;;;5101447;28;20047;-72
2022/11/29 03:11:23;;;;;;;42.22;33.38;;;;;;;;;;5103077;28;20073;-75
2022/11/29 03:13:52;;;;;;;41.50;33.03;;;;;;;;;;5077135;28;20370;-72
2022/11/29 03:16:36;;;;;;;37.22;31.30;;;;;;;;;;5097785;28;20114;-73
2022/11/29 03:19:01;;;;;;;41.03;31.42;;;;;;;;;;5100784;28;20110;-72
2022/11/29 03:21:26;;;;;;;40.33;33.78;;;;;;;;;;5100619;28;20122;-74
2022/11/29 03:24:04;;;;;;;47.35;39.38;;;;;;;;;;5100262;28;20023;-74
2022/11/29 03:26:50;;;;;;;48.70;39.38;;;;;;;;;;5091364;28;20791;-72
2022/11/29 03:29:34;;;;;;;55.45;44.85;;;;;;;;;;5092882;28;20027;-77
2022/11/29 03:32:02;;;;;;;73.82;55.60;;;;;;;;;;5096024;28;20209;-73
2022/11/29 03:34:40;;;;;;;57.17;45.38;;;;;;;;;;5094655;28;20499;-72
2022/11/29 03:37:11;;;;;;;53.83;44.08;;;;;;;;;;5100709;28;20035;-72
2022/11/29 03:39:50;;;;;;;54.17;43.05;;;;;;;;;;5100602;28;20160;-76
2022/11/29 03:42:23;;;;;;;50.67;42.15;;;;;;;;;;5101363;28;20027;-73
2022/11/29 03:44:54;;;;;;;60.05;47.90;;;;;;;;;;5091651;28;20046;-72
2022/11/29 03:47:22;;;;;;;52.70;41.20;;;;;;;;;;5100336;28;20033;-72
2022/11/29 03:50:10;;;;;;;41.03;33.80;;;;;;;;;;5099631;28;20028;-73
2022/11/29 03:52:38;;;;;;;47.28;36.92;;;;;;;;;;5100904;28;20035;-73
2022/11/29 03:55:10;;;;;;;48.08;37.25;;;;;;;;;;5101498;28;20020;-73
2022/11/29 03:57:41;;;;;;;48.22;40.28;;;;;;;;;;5092476;27;20030;-72
2022/11/29 04:00:08;;;;;;;82.80;66.38;;;;;;;;;;5101158;27;20032;-72
2022/11/29 04:02:39;;;;;;;120.85;105.72;;;;;;;;;;5102683;27;20042;-74
2022/11/29 04:05:23;;;;;;;69.65;59.60;;;;;;;;;;5095165;27;20088;-73
2022/11/29 04:07:51;;;;;;;62.90;50.78;;;;;;;;;;5095201;27;20023;-71
2022/11/29 04:10:17;;;;;;;64.95;53.08;;;;;;;;;;5104451;27;20034;-74
2022/11/29 04:12:51;;;;;;;55.30;45.80;;;;;;;;;;5103334;27;20031;-73
2022/11/29 04:15:24;;;;;;;109.13;97.07;;;;;;;;;;5103061;27;20039;-72
2022/11/29 04:18:12;;;;;;;81.80;65.57;;;;;;;;;;5104223;27;20012;-75
2022/11/29 04:20:53;;;;;;;72.65;58.40;;;;;;;;;;5080601;27;20054;-75
2022/11/29 04:23:37;;;;;;;54.65;42.85;;;;;;;;;;5104652;27;20031;-72
2022/11/29 04:26:18;;;;;;;51.03;40.25;;;;;;;;;;5102300;28;20446;-72
2022/11/29 04:29:15;;;;;;;49.33;38.97;;;;;;;;;;5104255;27;20024;-74
2022/11/29 04:31:59;;;;;;;52.95;41.33;;;;;;;;;;5050058;27;20063;-74
2022/11/29 04:34:36;;;;;;;58.25;43.97;;;;;;;;;;5094084;27;20471;-71
2022/11/29 04:37:20;;;;;;;79.15;59.95;;;;;;;;;;5104743;27;20035;-75
2022/11/29 04:40:04;;;;;;;78.30;59.10;;;;;;;;;;5103816;27;20023;-73
2022/11/29 04:42:41;;;;;;;68.50;52.25;;;;;;;;;;5099252;27;20526;-72
2022/11/29 04:45:25;;;;;;;66.65;55.20;;;;;;;;;;5086906;28;20102;-74
2022/11/29 04:47:58;;;;;;;73.35;58.20;;;;;;;;;;5088688;28;20079;-72
2022/11/29 04:50:23;;;;;;;63.78;55.22;;;;;;;;;;5091118;27;20045;-72
2022/11/29 04:53:07;;;;;;;64.25;51.45;;;;;;;;;;5089488;28;20446;-76
2022/11/29 04:55:32;;;;;;;74.03;59.25;;;;;;;;;;5091055;27;20012;-76
2022/11/29 04:58:16;;;;;;;107.80;83.53;;;;;;;;;;5089466;27;20347;-77
2022/11/29 05:00:46;;;;;;;57.55;46.80;;;;;;;;;;5091184;27;20023;-73
2022/11/29 05:03:29;;;;;;;65.68;51.17;;;;;;;;;;5090041;27;20472;-73
2022/11/29 05:06:00;;;;;;;61.00;47.47;;;;;;;;;;5093853;27;20031;-74
2022/11/29 05:08:31;;;;;;;125.05;86.03;;;;;;;;;;5104691;27;20019;-74
2022/11/29 05:11:00;;;;;;;84.57;63.60;;;;;;;;;;5103949;27;20039;-71
2022/11/29 05:13:30;;;;;;;172.00;118.57;;;;;;;;;;5104559;27;20027;-73
2022/11/29 05:15:55;;;;;;;142.88;108.32;;;;;;;;;;5101780;28;20023;-72
2022/11/29 05:18:26;;;;;;;106.30;82.43;;;;;;;;;;5103731;27;20781;-72
2022/11/29 05:20:59;;;;;;;90.22;70.30;;;;;;;;;;5100907;27;20079;-72
2022/11/29 05:23:36;;;;;;;75.82;59.67;;;;;;;;;;5098834;27;20042;-74
2022/11/29 05:26:11;;;;;;;89.82;72.70;;;;;;;;;;5091971;27;20088;-72
2022/11/29 05:28:40;;;;;;;103.22;75.32;;;;;;;;;;5104950;27;20051;-72
2022/11/29 05:31:17;;;;;;;118.25;89.55;;;;;;;;;;5102086;27;20035;-72
2022/11/29 05:33:52;;;;;;;132.48;103.75;;;;;;;;;;5099536;27;20529;-75
2022/11/29 05:36:31;;;;;;;131.73;104.18;;;;;;;;;;5104329;27;20706;-73
2022/11/29 05:39:15;;;;;;;128.68;102.97;;;;;;;;;;5096944;28;20351;-73
2022/11/29 05:41:41;;;;;;;141.43;113.88;;;;;;;;;;5099595;28;20412;-74
2022/11/29 05:44:24;;;;;;;165.40;133.63;;;;;;;;;;5088042;27;20023;-73
2022/11/29 05:46:54;;;;;;;129.15;104.22;;;;;;;;;;5088938;28;20354;-75
2022/11/29 05:49:20;;;;;;;177.73;144.60;;;;;;;;;;5096498;27;20074;-76
2022/11/29 05:52:04;;;;;;;119.30;96.97;;;;;;;;;;5105012;27;20403;-73
2022/11/29 05:54:38;;;;;;;135.07;110.18;;;;;;;;;;5095981;27;20027;-77
2022/11/29 05:57:22;;;;;;;127.45;98.07;;;;;;;;;;5098292;27;20020;-74
2022/11/29 05:59:49;;;;;;;116.78;98.72;;;;;;;;;;5103605;27;20449;-72
2022/11/29 06:02:26;;;;;;;102.75;87.13;;;;;;;;;;5102047;27;20074;-72
2022/11/29 06:05:05;;;;;;;140.27;112.35;;;;;;;;;;5102777;27;20023;-72
2022/11/29 06:07:40;;;;;;;126.65;99.22;;;;;;;;;;5095581;27;20084;-72
2022/11/29 06:10:10;;;;;;;106.10;90.93;;;;;;;;;;5087275;28;20698;-74
2022/11/29 06:12:36;;;;;;;102.80;86.10;;;;;;;;;;5087317;28;20050;-75
2022/11/29 06:15:12;;;;;;;177.90;133.68;;;;;;;;;;5089220;27;20019;-72
2022/11/29 06:18:00;;;;;;;110.47;88.35;;;;;;;;;;5087877;27;20084;-73
2022/11/29 06:20:33;;;;;;;149.57;112.88;;;;;;;;;;5068215;28;20051;-73
2022/11/29 06:23:11;;;;;;;125.10;101.65;;;;;;;;;;5088642;27;20028;-72
2022/11/29 06:25:58;;;;;;;120.10;96.15;;;;;;;;;;5087269;28;20442;-73
2022/11/29 06:28:42;;;;;;;130.35;103.70;;;;;;;;;;5087036;27;20360;-73
2022/11/29 06:31:22;;;;;;;90.78;79.07;;;;;;;;;;5087769;27;20070;-73
2022/11/29 06:34:10;;;;;;;72.85;64.90;;;;;;;;;;5087704;27;20110;-74
2022/11/29 06:36:43;;;;;;;102.53;87.43;;;;;;;;;;5087723;28;20015;-74
2022/11/29 06:39:09;;;;;;;116.70;103.75;;;;;;;;;;5088379;28;20050;-72
2022/11/29 06:41:34;;;;;;;106.60;94.47;;;;;;;;;;5088664;28;20093;-72
2022/11/29 06:44:00;;;;;;;84.88;74.38;;;;;;;;;;5099642;27;20055;-72
2022/11/29 06:46:44;;;;;;;99.97;87.80;;;;;;;;;;5101290;28;20108;-73
2022/11/29 06:49:18;;;;;;;121.93;105.28;;;;;;;;;;5100780;28;20027;-73
2022/11/29 06:51:46;;;;;;;106.88;92.75;;;;;;;;;;5102475;28;20027;-73
2022/11/29 06:54:23;;;;;;;85.13;70.88;;;;;;;;;;5101667;28;20023;-73
2022/11/29 06:57:12;;;;;;;80.72;71.97;;;;;;;;;;5100682;28;20969;-73
2022/11/29 06:59:37;;;;;;;94.57;78.95;;;;;;;;;;5088161;28;20047;-73
2022/11/29 07:02:21;;;;;;;111.10;95.03;;;;;;;;;;5082672;28;20027;-72
2022/11/29 07:04:56;;;;;;;248.40;166.25;;;;;;;;;;5099918;28;20035;-72
2022/11/29 07:07:22;;;;;;;142.60;116.80;;;;;;;;;;5085767;28;20024;-72
2022/11/29 07:09:52;;;;;;;102.53;86.43;;;;;;;;;;5101919;28;20031;-74
2022/11/29 07:12:17;;;;;;;175.98;140.52;;;;;;;;;;5102452;28;20427;-71
2022/11/29 07:14:43;;;;;;;132.27;113.13;;;;;;;;;;5101529;28;20028;-71
2022/11/29 07:17:28;;;;;;;80.55;71.20;;;;;;;;;;5101131;28;20081;-74
2022/11/29 07:20:02;;;;;;;63.88;53.55;;;;;;;;;;5100363;28;20039;-71
2022/11/29 07:22:33;;;;;;;57.28;44.05;;;;;;;;;;5101431;28;20031;-73
2022/11/29 07:25:04;;;;;;;37.95;31.17;;;;;;;;;;5103092;28;20092;-72
2022/11/29 07:27:48;;;;;;;29.05;25.15;;;;;;;;;;5101464;28;20590;-71
2022/11/29 07:30:17;;;;;;;33.50;27.73;;;;;;;;;;5100413;28;20028;-71
2022/11/29 07:32:49;;;;;;;30.10;24.73;;;;;;;;;;5104582;27;20027;-70
2022/11/29 07:35:17;;;;;;;28.42;24.30;;;;;;;;;;5107416;27;20019;-72
2022/11/29 07:37:51;;;;;;;33.17;27.90;;;;;;;;;;5103819;27;20110;-74
2022/11/29 07:40:30;;;;;;;39.45;33.35;;;;;;;;;;5107301;27;20059;-72
2022/11/29 07:43:06;;;;;;;26.13;22.80;;;;;;;;;;5105294;27;20451;-73
2022/11/29 07:45:34;;;;;;;26.35;21.70;;;;;;;;;;5104859;27;20028;-73
2022/11/29 07:48:00;;;;;;;26.83;22.63;;;;;;;;;;5105613;27;20475;-73
2022/11/29 07:50:26;;;;;;;27.15;23.65;;;;;;;;;;5106552;27;20035;-74
2022/11/29 07:52:52;;;;;;;30.50;25.08;;;;;;;;;;5105338;27;20043;-72
2022/11/29 07:55:19;;;;;;;27.20;22.77;;;;;;;;;;5103677;27;20037;-73
2022/11/29 07:57:44;;;;;;;22.42;19.80;;;;;;;;;;5103585;27;20027;-75
2022/11/29 08:00:10;;;;;;;26.45;20.33;;;;;;;;;;5107207;27;21445;-72
2022/11/29 08:02:36;;;;;;;23.85;20.27;;;;;;;;;;5105023;27;20031;-73
2022/11/29 08:05:02;;;;;;;25.70;20.90;;;;;;;;;;5105360;27;20031;-73
2022/11/29 08:07:28;;;;;;;24.67;20.33;;;;;;;;;;5105598;27;20023;-72
2022/11/29 08:09:53;;;;;;;25.15;21.77;;;;;;;;;;5103522;27;20038;-76
2022/11/29 08:12:18;;;;;;;21.80;19.13;;;;;;;;;;5104615;27;20055;-74
2022/11/29 08:14:44;;;;;;;36.65;28.75;;;;;;;;;;5104084;27;20035;-73
2022/11/29 08:17:09;;;;;;;46.03;35.10;;;;;;;;;;5105099;27;20423;-73
2022/11/29 08:19:35;;;;;;;76.38;50.13;;;;;;;;;;5105362;27;20772;-73
2022/11/29 08:22:00;;;;;;;175.75;100.30;;;;;;;;;;5104200;27;20047;-71
2022/11/29 08:24:26;;;;;;;83.47;52.83;;;;;;;;;;5104347;27;20019;-73
2022/11/29 08:26:51;;;;;;;131.63;77.05;;;;;;;;;;5106225;27;20042;-72
2022/11/29 08:29:17;;;;;;;96.30;65.32;;;;;;;;;;5105073;27;20031;-73
2022/11/29 08:31:42;;;;;;;78.25;56.92;;;;;;;;;;5104801;27;20065;-72
2022/11/29 08:34:09;;;;;;;41.00;33.63;;;;;;;;;;5107290;27;20034;-75
2022/11/29 08:36:35;;;;;;;39.42;31.67;;;;;;;;;;5105087;27;20023;-73
2022/11/29 08:39:01;;;;;;;30.30;25.75;;;;;;;;;;5103267;27;20085;-73
2022/11/29 08:41:27;;;;;;;27.48;24.50;;;;;;;;;;5104224;27;20066;-72
2022/11/29 08:43:52;;;;;;;21.75;19.50;;;;;;;;;;5102004;27;20054;-73
2022/11/29 08:46:18;;;;;;;27.38;23.85;;;;;;;;;;5105414;27;20431;-72
2022/11/29 08:48:43;;;;;;;29.45;23.88;;;;;;;;;;5106765;27;20319;-72
2022/11/29 08:51:08;;;;;;;19.33;17.17;;;;;;;;;;5103775;27;20474;-74
2022/11/29 08:53:45;;;;;;;37.67;32.28;;;;;;;;;;5104155;27;20042;-72
2022/11/29 08:56:14;;;;;;;64.60;55.20;;;;;;;;;;5104580;27;20038;-71
2022/11/29 08:58:39;;;;;;;151.70;117.90;;;;;;;;;;5102492;27;21354;-72
2022/11/29 09:01:11;;;;;;;79.47;67.03;;;;;;;;;;5104998;27;20057;-71
2022/11/29 09:06:20;;;;;;;53.47;47.75;;;;;;;;;;5102316;27;20105;-73
2022/11/29 09:08:45;;;;;;;34.83;31.10;;;;;;;;;;5105000;27;20032;-72
2022/11/29 09:11:13;;;;;;;43.53;35.53;;;;;;;;;;5103857;27;20446;-72
2022/11/29 09:13:39;;;;;;;27.70;21.15;;;;;;;;;;5104257;27;20039;-71
2022/11/29 09:16:05;;;;;;;17.13;15.32;;;;;;;;;;5106003;27;20027;-71
2022/11/29 09:18:31;;;;;;;16.77;15.02;;;;;;;;;;5100861;28;20027;-71
2022/11/29 09:20:56;;;;;;;17.13;15.07;;;;;;;;;;5102006;27;20358;-72
2022/11/29 09:23:22;;;;;;;13.73;12.32;;;;;;;;;;5105734;27;20669;-71
2022/11/29 09:25:48;;;;;;;35.67;27.58;;;;;;;;;;5103314;27;20443;-71
2022/11/29 09:28:14;;;;;;;35.92;27.73;;;;;;;;;;5104870;27;20102;-72
2022/11/29 09:30:39;;;;;;;12.90;11.52;;;;;;;;;;5102424;27;20114;-73
2022/11/29 09:33:05;;;;;;;13.00;11.60;;;;;;;;;;5102209;28;20032;-72
2022/11/29 09:35:31;;;;;;;12.23;10.93;;;;;;;;;;5102169;27;20032;-71
2022/11/29 09:37:56;;;;;;;12.65;11.35;;;;;;;;;;5103849;27;20031;-72
2022/11/29 09:40:29;;;;;;;12.30;11.05;;;;;;;;;;5105298;27;20016;-72
2022/11/29 09:42:58;;;;;;;17.58;12.38;;;;;;;;;;5101958;27;20490;-72
2022/11/29 09:45:28;;;;;;;11.55;10.35;;;;;;;;;;5103764;27;20355;-72
2022/11/29 09:48:01;;;;;;;11.30;10.07;;;;;;;;;;5102085;28;20022;-72
2022/11/29 09:50:30;;;;;;;11.32;10.25;;;;;;;;;;5102948;27;20350;-72
2022/11/29 09:52:55;;;;;;;9.70;8.70;;;;;;;;;;5102559;27;20107;-72
2022/11/29 09:55:21;;;;;;;9.95;8.88;;;;;;;;;;5103759;27;20550;-71
2022/11/29 09:57:47;;;;;;;9.05;8.15;;;;;;;;;;5103840;27;20023;-72
2022/11/29 10:00:14;;;;;;;9.15;8.25;;;;;;;;;;5101669;27;20058;-73
2022/11/29 10:02:46;;;;;;;11.15;10.05;;;;;;;;;;5100997;27;20454;-72
2022/11/29 10:05:12;;;;;;;11.52;10.32;;;;;;;;;;5103341;27;20031;-70
2022/11/29 10:07:44;;;;;;;11.98;10.65;;;;;;;;;;5103067;27;20108;-71
2022/11/29 10:10:15;;;;;;;9.85;8.82;;;;;;;;;;5104198;27;20015;-72
2022/11/29 10:13:03;;;;;;;10.50;9.45;;;;;;;;;;5101920;27;20038;-73
2022/11/29 10:15:30;;;;;;;11.55;10.27;;;;;;;;;;5102047;27;20426;-71
2022/11/29 10:17:59;;;;;;;16.50;14.77;;;;;;;;;;5103229;27;20127;-72
2022/11/29 10:20:32;;;;;;;36.33;30.23;;;;;;;;;;5100095;27;20052;-72
2022/11/29 10:23:16;;;;;;;20.77;15.70;;;;;;;;;;5100874;27;20370;-73
2022/11/29 10:25:44;;;;;;;21.83;16.98;;;;;;;;;;5104110;27;20027;-72
2022/11/29 10:28:15;;;;;;;47.35;33.33;;;;;;;;;;5102764;27;20101;-72
2022/11/29 10:30:41;;;;;;;14.77;11.73;;;;;;;;;;5102531;27;20020;-74
2022/11/29 10:33:12;;;;;;;16.13;13.07;;;;;;;;;;5083823;28;20358;-71
2022/11/29 10:35:37;;;;;;;12.90;11.60;;;;;;;;;;5102820;27;20035;-71
2022/11/29 10:38:03;;;;;;;9.23;8.30;;;;;;;;;;5103755;27;21190;-72
2022/11/29 10:40:31;;;;;;;8.65;7.85;;;;;;;;;;5104723;27;20076;-71
2022/11/29 10:42:56;;;;;;;11.20;10.05;;;;;;;;;;5101361;28;20027;-73
2022/11/29 10:45:22;;;;;;;9.90;8.90;;;;;;;;;;5101096;28;20030;-71
2022/11/29 10:47:48;;;;;;;10.55;9.48;;;;;;;;;;5101343;28;20024;-73
2022/11/29 10:50:25;;;;;;;7.65;6.95;;;;;;;;;;5104678;28;20020;-72
2022/11/29 10:52:52;;;;;;;9.25;8.25;;;;;;;;;;5102945;28;20094;-72
2022/11/29 10:55:17;;;;;;;8.55;7.72;;;;;;;;;;5100995;28;20168;-72
2022/11/29 10:58:01;;;;;;;13.38;12.02;;;;;;;;;;5101279;28;20110;-71
2022/11/29 11:00:27;;;;;;;9.68;8.68;;;;;;;;;;5099446;28;20117;-73
2022/11/29 11:02:52;;;;;;;10.25;9.25;;;;;;;;;;5102746;28;20059;-74
2022/11/29 11:05:23;;;;;;;8.75;7.88;;;;;;;;;;5100353;28;20036;-74
2022/11/29 11:07:55;;;;;;;10.95;9.82;;;;;;;;;;5104666;27;20027;-73
2022/11/29 11:10:25;;;;;;;9.50;8.50;;;;;;;;;;5105741;27;20024;-73
2022/11/29 11:13:03;;;;;;;9.00;8.10;;;;;;;;;;5106500;27;20023;-75
2022/11/29 11:15:30;;;;;;;10.32;9.30;;;;;;;;;;5107374;27;20355;-73
2022/11/29 11:17:55;;;;;;;9.25;8.35;;;;;;;;;;5105640;27;20358;-72
2022/11/29 11:20:22;;;;;;;8.23;7.43;;;;;;;;;;5105814;27;20044;-72
2022/11/29 11:22:55;;;;;;;8.65;7.75;;;;;;;;;;5105071;27;20059;-72
2022/11/29 11:25:23;;;;;;;8.88;7.97;;;;;;;;;;5106188;27;20039;-74
2022/11/29 11:27:49;;;;;;;8.65;7.75;;;;;;;;;;5104907;27;20110;-73
2022/11/29 11:30:28;;;;;;;14.70;13.20;;;;;;;;;;5105613;27;20114;-72
2022/11/29 11:33:11;;;;;;;12.70;10.38;;;;;;;;;;5106861;27;20023;-72
2022/11/29 11:35:37;;;;;;;9.70;8.80;;;;;;;;;;5104435;27;20036;-71
2022/11/29 11:38:02;;;;;;;8.68;7.88;;;;;;;;;;5104770;27;20419;-73
2022/11/29 11:40:29;;;;;;;8.77;7.88;;;;;;;;;;5104600;27;20490;-74
2022/11/29 11:42:59;;;;;;;8.70;7.80;;;;;;;;;;5107125;27;20035;-72
2022/11/29 11:45:35;;;;;;;8.38;7.50;;;;;;;;;;5103945;27;20667;-71
2022/11/29 11:48:02;;;;;;;8.55;7.75;;;;;;;;;;5104688;27;20095;-72
2022/11/29 11:51:03;;;;;;;8.10;7.30;;;;;;;;;;5103967;27;20445;-71
2022/11/29 11:53:30;;;;;;;9.13;8.32;;;;;;;;;;5002196;28;20091;-71
2022/11/29 11:56:06;;;;;;;11.82;10.68;;;;;;;;;;5004242;28;20500;-71
2022/11/29 11:58:49;;;;;;;10.68;9.68;;;;;;;;;;5003044;28;20033;-71
2022/11/29 12:01:22;;;;;;;10.95;9.85;;;;;;;;;;5003417;28;20136;-73
2022/11/29 12:03:54;;;;;;;9.35;8.38;;;;;;;;;;5002647;28;20037;-72
2022/11/29 12:06:25;;;;;;;9.80;8.82;;;;;;;;;;5003791;28;20030;-73
2022/11/29 12:08:53;;;;;;;10.05;9.05;;;;;;;;;;5002579;28;20137;-75
2022/11/29 12:11:19;;;;;;;80.53;60.92;;;;;;;;;;5005699;28;20125;-72
2022/11/29 12:13:47;;;;;;;27.88;24.98;;;;;;;;;;5003279;28;20069;-74
2022/11/29 12:16:26;;;;;;;33.75;30.67;;;;;;;;;;5003370;28;20117;-72
2022/11/29 12:18:53;;;;;;;20.52;18.70;;;;;;;;;;5002820;28;20080;-72
2022/11/29 12:21:24;;;;;;;21.02;19.13;;;;;;;;;;5005205;28;20054;-74
2022/11/29 12:23:59;;;;;;;13.30;12.00;;;;;;;;;;5003168;28;20124;-74
2022/11/29 12:26:44;;;;;;;8.93;8.00;;;;;;;;;;5009136;28;20022;-73
2022/11/29 12:29:15;;;;;;;10.02;9.00;;;;;;;;;;5102045;27;20050;-73
2022/11/29 12:31:43;;;;;;;7.85;7.15;;;;;;;;;;5091531;27;20107;-76
2022/11/29 12:34:23;;;;;;;20.45;16.17;;;;;;;;;;5101162;27;20035;-73
2022/11/29 12:36:54;;;;;;;41.58;29.63;;;;;;;;;;5105212;27;20495;-72
2022/11/29 12:39:29;;;;;;;24.80;16.67;;;;;;;;;;5095121;27;20042;-75
2022/11/29 12:42:14;;;;;;;18.88;14.40;;;;;;;;;;5091364;27;20106;-74
2022/11/29 12:44:46;;;;;;;14.60;12.18;;;;;;;;;;5071536;28;20486;-72
2022/11/29 12:47:20;;;;;;;12.38;10.90;;;;;;;;;;5090397;28;20027;-74
2022/11/29 12:49:45;;;;;;;10.63;9.52;;;;;;;;;;5090880;27;20338;-73
2022/11/29 12:52:21;;;;;;;6.70;6.10;;;;;;;;;;5090829;27;20023;-72
2022/11/29 12:54:55;;;;;;;6.82;6.22;;;;;;;;;;5090369;27;20023;-75
2022/11/29 12:57:39;;;;;;;5.60;5.10;;;;;;;;;;5090619;27;20023;-74
2022/11/29 13:00:07;;;;;;;6.85;6.25;;;;;;;;;;5089144;28;20020;-72
2022/11/29 13:02:50;;;;;;;6.55;5.95;;;;;;;;;;5090029;28;20108;-74
2022/11/29 13:05:16;;;;;;;56.53;37.10;;;;;;;;;;5091110;27;20040;-73
2022/11/29 13:07:41;;;;;;;61.08;32.75;;;;;;;;;;5080100;28;20050;-72
2022/11/29 13:10:12;;;;;;;41.17;24.45;;;;;;;;;;5090741;27;20312;-72
2022/11/29 13:12:37;;;;;;;78.95;46.20;;;;;;;;;;5092694;27;20066;-72
2022/11/29 13:15:06;;;;;;;53.88;36.17;;;;;;;;;;5101669;27;20055;-72
2022/11/29 13:17:50;;;;;;;43.75;32.15;;;;;;;;;;5102800;27;20088;-72
2022/11/29 13:20:21;;;;;;;16.83;12.85;;;;;;;;;;5090975;27;20419;-71
2022/11/29 13:22:52;;;;;;;11.50;10.23;;;;;;;;;;5088269;27;20404;-72
2022/11/29 13:25:23;;;;;;;14.00;12.18;;;;;;;;;;5087920;27;20406;-71
2022/11/29 13:27:57;;;;;;;10.63;9.52;;;;;;;;;;5088643;27;20434;-72
2022/11/29 13:30:22;;;;;;;10.35;9.25;;;;;;;;;;5089436;27;20085;-75
2022/11/29 13:32:50;;;;;;;14.30;12.80;;;;;;;;;;5088919;27;20039;-72
2022/11/29 13:35:22;;;;;;;17.63;14.93;;;;;;;;;;5088681;27;20028;-72
2022/11/29 13:38:07;;;;;;;17.08;14.27;;;;;;;;;;5089789;27;20023;-72
2022/11/29 13:40:38;;;;;;;16.73;13.18;;;;;;;;;;5069434;27;20044;-72
2022/11/29 13:43:39;;;;;;;15.95;12.50;;;;;;;;;;5088739;28;20027;-72
2022/11/29 13:46:18;;;;;;;18.17;15.32;;;;;;;;;;5025766;28;20021;-72
2022/11/29 13:48:48;;;;;;;12.07;10.87;;;;;;;;;;5026922;28;20049;-72
2022/11/29 13:51:21;;;;;;;14.60;13.15;;;;;;;;;;5027461;28;20025;-74
2022/11/29 13:53:46;;;;;;;12.30;11.07;;;;;;;;;;5025482;28;20036;-75
2022/11/29 13:56:30;;;;;;;13.73;12.43;;;;;;;;;;5026805;28;20090;-72
2022/11/29 13:58:57;;;;;;;14.10;11.88;;;;;;;;;;5027301;28;20044;-71
2022/11/29 14:01:25;;;;;;;23.05;19.05;;;;;;;;;;5026522;28;20103;-72
2022/11/29 14:04:02;;;;;;;14.95;13.30;;;;;;;;;;5025583;28;20041;-72
2022/11/29 14:06:31;;;;;;;11.77;10.68;;;;;;;;;;5025951;28;20059;-71
2022/11/29 14:09:20;;;;;;;12.95;11.38;;;;;;;;;;5027335;28;20036;-72
2022/11/29 14:12:03;;;;;;;15.48;13.48;;;;;;;;;;5027859;28;20044;-73
2022/11/29 14:14:34;;;;;;;11.82;10.63;;;;;;;;;;5025707;28;20037;-72
2022/11/29 14:17:03;;;;;;;10.48;9.48;;;;;;;;;;5023698;28;20032;-73
2022/11/29 14:19:30;;;;;;;15.93;13.80;;;;;;;;;;5040868;28;20950;-72
2022/11/29 14:22:04;;;;;;;10.85;9.75;;;;;;;;;;5097616;27;20119;-72
2022/11/29 14:24:35;;;;;;;13.05;11.75;;;;;;;;;;5102269;27;20084;-78
2022/11/29 14:27:06;;;;;;;6.65;6.05;;;;;;;;;;5102626;28;20092;-75
2022/11/29 14:29:52;;;;;;;9.55;8.55;;;;;;;;;;5103309;27;20084;-73
2022/11/29 14:32:30;;;;;;;10.35;9.35;;;;;;;;;;5102597;27;20019;-74
2022/11/29 14:35:10;;;;;;;8.32;7.53;;;;;;;;;;5092171;27;20507;-76
2022/11/29 14:37:54;;;;;;;31.35;27.55;;;;;;;;;;5097362;28;20031;-75
2022/11/29 14:40:30;;;;;;;15.55;14.05;;;;;;;;;;5068716;28;20019;-76
2022/11/29 14:42:55;;;;;;;16.20;14.27;;;;;;;;;;5088562;28;20045;-74
2022/11/29 14:45:26;;;;;;;12.60;11.30;;;;;;;;;;5098842;27;20023;-74
2022/11/29 14:47:51;;;;;;;9.32;8.48;;;;;;;;;;5101614;28;20388;-72
2022/11/29 14:50:37;;;;;;;10.60;9.57;;;;;;;;;;5102856;28;20023;-74